createdAt,value
2022-08-07T00:00:04.134Z,992.99
2022-08-07T00:00:20.822Z,992.99
2022-08-07T00:00:36.573Z,992.99
2022-08-07T00:00:53.407Z,992.99
2022-08-07T00:01:43.559Z,992.99
2022-08-07T00:01:44.394Z,992.99
2022-08-07T00:02:36.381Z,993
2022-08-07T00:02:36.731Z,992.99
2022-08-07T00:02:36.786Z,992.99
2022-08-07T00:02:40.525Z,992.99
2022-08-07T00:02:45.228Z,992.99
2022-08-07T00:03:00.804Z,992.98
2022-08-07T00:03:21.361Z,992.99
2022-08-07T00:03:36.877Z,992.98
2022-08-07T00:03:49.065Z,992.98
2022-08-07T00:04:04.177Z,992.98
2022-08-07T00:04:24.412Z,992.97
2022-08-07T00:04:36.996Z,992.97
2022-08-07T00:04:53.713Z,992.98
2022-08-07T00:05:08.650Z,992.96
2022-08-07T00:05:24.272Z,992.96
2022-08-07T00:05:40.520Z,992.94
2022-08-07T00:05:56.704Z,992.93
2022-08-07T00:06:13.865Z,992.93
2022-08-07T00:06:29.538Z,992.93
2022-08-07T00:06:51.366Z,992.91
2022-08-07T00:07:01.511Z,992.91
2022-08-07T00:07:17.811Z,992.92
2022-08-07T00:07:40.518Z,992.91
2022-08-07T00:07:48.233Z,992.91
2022-08-07T00:08:04.709Z,992.92
2022-08-07T00:08:20.306Z,992.93
2022-08-07T00:08:51.938Z,992.93
2022-08-07T00:09:16.296Z,992.93
2022-08-07T00:09:34.271Z,992.92
2022-08-07T00:09:44.506Z,992.93
2022-08-07T00:10:19.322Z,992.94
2022-08-07T00:10:25.843Z,992.93
2022-08-07T00:10:29.704Z,992.94
2022-08-07T00:10:47.950Z,992.94
2022-08-07T00:11:00.955Z,992.93
2022-08-07T00:11:20.064Z,992.94
2022-08-07T00:11:33.358Z,992.95
2022-08-07T00:11:56.044Z,992.95
2022-08-07T00:12:05.107Z,992.94
2022-08-07T00:12:20.527Z,992.94
2022-08-07T00:12:35.607Z,992.94
2022-08-07T00:13:00.762Z,992.95
2022-08-07T00:13:23.749Z,992.94
2022-08-07T00:13:26.749Z,992.94
2022-08-07T00:13:44.739Z,992.95
2022-08-07T00:13:56.955Z,992.94
2022-08-07T00:14:14.948Z,992.94
2022-08-07T00:14:29.807Z,992.94
2022-08-07T00:14:44.978Z,992.95
2022-08-07T00:15:01.148Z,992.94
2022-08-07T00:15:16.604Z,992.94
2022-08-07T00:15:36.184Z,992.95
2022-08-07T00:15:50.829Z,992.95
2022-08-07T00:16:04.214Z,992.94
2022-08-07T00:16:21.604Z,992.94
2022-08-07T00:16:36.337Z,992.93
2022-08-07T00:16:52.944Z,992.92
2022-08-07T00:17:08.558Z,992.92
2022-08-07T00:17:25.160Z,992.91
2022-08-07T00:17:41.608Z,992.91
2022-08-07T00:17:56.363Z,992.9
2022-08-07T00:18:19.513Z,992.9
2022-08-07T00:18:28.573Z,992.9
2022-08-07T00:18:44.842Z,992.89
2022-08-07T00:19:00.076Z,992.9
2022-08-07T00:19:21.554Z,992.9
2022-08-07T00:19:58.716Z,992.89
2022-08-07T00:20:00.978Z,992.89
2022-08-07T00:20:05.578Z,992.88
2022-08-07T00:20:29.847Z,992.89
2022-08-07T00:20:37.760Z,992.9
2022-08-07T00:20:52.125Z,992.89
2022-08-07T00:21:56.269Z,992.9
2022-08-07T00:21:56.421Z,992.91
2022-08-07T00:21:56.705Z,992.9
2022-08-07T00:22:01.858Z,992.91
2022-08-07T00:22:12.792Z,992.92
2022-08-07T00:22:35.511Z,992.91
2022-08-07T00:22:51.766Z,992.91
2022-08-07T00:23:00.095Z,992.92
2022-08-07T00:23:16.965Z,992.92
2022-08-07T00:23:32.869Z,992.93
2022-08-07T00:23:47.832Z,992.94
2022-08-07T00:24:05.214Z,992.95
2022-08-07T00:24:20.409Z,992.96
2022-08-07T00:24:38.541Z,992.96
2022-08-07T00:24:52.750Z,992.97
2022-08-07T00:25:11.157Z,992.97
2022-08-07T00:25:28.363Z,992.97
2022-08-07T00:25:41.699Z,992.97
2022-08-07T00:26:02.784Z,992.98
2022-08-07T00:26:18.797Z,992.98
2022-08-07T00:26:48.645Z,993
2022-08-07T00:26:58.667Z,993.01
2022-08-07T00:27:07.148Z,993.03
2022-08-07T00:27:16.493Z,993.03
2022-08-07T00:27:51.852Z,993.02
2022-08-07T00:27:53.749Z,993.02
2022-08-07T00:28:04.673Z,993.03
2022-08-07T00:28:22.083Z,993.03
2022-08-07T00:28:46.158Z,993.04
2022-08-07T00:28:56.747Z,993.05
2022-08-07T00:29:08.023Z,993.05
2022-08-07T00:29:24.223Z,993.03
2022-08-07T00:29:40.518Z,993.04
2022-08-07T00:29:56.339Z,993.04
2022-08-07T00:30:26.414Z,993.04
2022-08-07T00:30:29.108Z,993.04
2022-08-07T00:30:45.448Z,993.05
2022-08-07T00:31:01.257Z,993.05
2022-08-07T00:31:17.748Z,993.05
2022-08-07T00:31:37.891Z,993.06
2022-08-07T00:31:49.218Z,993.04
2022-08-07T00:32:04.316Z,993.04
2022-08-07T00:32:28.375Z,993.03
2022-08-07T00:32:37.074Z,993.04
2022-08-07T00:32:53.020Z,993.05
2022-08-07T00:33:08.201Z,993.06
2022-08-07T00:33:25.126Z,993.06
2022-08-07T00:33:40.255Z,993.05
2022-08-07T00:33:57.593Z,993.05
2022-08-07T00:34:12.780Z,993.05
2022-08-07T00:34:28.108Z,993.05
2022-08-07T00:34:44.322Z,993.06
2022-08-07T00:35:01.631Z,993.07
2022-08-07T00:35:16.728Z,993.07
2022-08-07T00:35:32.454Z,993.08
2022-08-07T00:35:49.676Z,993.08
2022-08-07T00:36:04.694Z,993.09
2022-08-07T00:36:23.163Z,993.1
2022-08-07T00:36:36.231Z,993.1
2022-08-07T00:36:52.689Z,993.1
2022-08-07T00:37:08.299Z,993.09
2022-08-07T00:37:23.701Z,993.08
2022-08-07T00:37:47.627Z,993.08
2022-08-07T00:37:55.738Z,993.09
2022-08-07T00:38:13.118Z,993.07
2022-08-07T00:38:31.141Z,993.09
2022-08-07T00:38:44.920Z,993.08
2022-08-07T00:39:00.044Z,993.08
2022-08-07T00:39:17.365Z,993.08
2022-08-07T00:39:32.693Z,993.07
2022-08-07T00:39:54.505Z,993.06
2022-08-07T00:40:04.674Z,993.06
2022-08-07T00:40:38.987Z,993.05
2022-08-07T00:40:39.320Z,993.07
2022-08-07T00:40:52.660Z,993.07
2022-08-07T00:41:14.392Z,993.06
2022-08-07T00:41:24.203Z,993.06
2022-08-07T00:41:53.027Z,993.06
2022-08-07T00:42:04.750Z,993.06
2022-08-07T00:42:13.067Z,993.06
2022-08-07T00:42:29.288Z,993.07
2022-08-07T00:42:45.718Z,993.08
2022-08-07T00:43:00.616Z,993.06
2022-08-07T00:44:00.916Z,993.07
2022-08-07T00:44:01.684Z,993.07
2022-08-07T00:44:01.847Z,993.08
2022-08-07T00:44:04.762Z,993.07
2022-08-07T00:44:20.739Z,993.07
2022-08-07T00:44:38.207Z,993.09
2022-08-07T00:44:52.164Z,993.08
2022-08-07T00:45:07.615Z,993.09
2022-08-07T00:45:25.801Z,993.08
2022-08-07T00:45:40.212Z,993.09
2022-08-07T00:45:56.982Z,993.09
2022-08-07T00:46:11.690Z,993.1
2022-08-07T00:46:29.128Z,993.09
2022-08-07T00:46:47.057Z,993.09
2022-08-07T00:47:00.988Z,993.09
2022-08-07T00:48:08.259Z,993.09
2022-08-07T00:48:08.930Z,993.08
2022-08-07T00:48:09.096Z,993.08
2022-08-07T00:48:18.220Z,993.09
2022-08-07T00:48:31.062Z,993.1
2022-08-07T00:48:35.760Z,993.1
2022-08-07T00:48:53.827Z,993.08
2022-08-07T00:49:09.789Z,993.1
2022-08-07T00:49:24.832Z,993.1
2022-08-07T00:50:19.781Z,993.09
2022-08-07T00:50:20.314Z,993.1
2022-08-07T00:50:20.737Z,993.09
2022-08-07T00:50:46.236Z,993.1
2022-08-07T00:50:51.050Z,993.09
2022-08-07T00:51:00.362Z,993.08
2022-08-07T00:51:17.094Z,993.07
2022-08-07T00:51:57.098Z,993.07
2022-08-07T00:51:57.660Z,993.07
2022-08-07T00:52:04.074Z,993.06
2022-08-07T00:52:21.382Z,993.06
2022-08-07T00:52:36.726Z,993.05
2022-08-07T00:52:53.052Z,993.06
2022-08-07T00:53:09.160Z,993.06
2022-08-07T00:53:23.722Z,993.06
2022-08-07T00:53:50.811Z,993.06
2022-08-07T00:53:57.074Z,993.06
2022-08-07T00:54:12.359Z,993.05
2022-08-07T00:54:28.535Z,993.04
2022-08-07T00:54:45.096Z,993.03
2022-08-07T00:55:04.964Z,993.03
2022-08-07T00:55:25.580Z,993.03
2022-08-07T00:56:02.600Z,993.03
2022-08-07T00:56:03.301Z,993.03
2022-08-07T00:56:13.898Z,993.04
2022-08-07T00:56:19.454Z,993.03
2022-08-07T00:56:36.249Z,993.02
2022-08-07T00:56:53.333Z,993.03
2022-08-07T00:57:08.887Z,993.03
2022-08-07T00:57:25.791Z,993.03
2022-08-07T00:57:44.443Z,993.02
2022-08-07T00:57:56.617Z,993.03
2022-08-07T00:58:12.704Z,993.03
2022-08-07T00:58:30.708Z,993.04
2022-08-07T00:58:46.953Z,993.03
2022-08-07T00:59:02.108Z,993.03
2022-08-07T00:59:16.972Z,993.04
2022-08-07T00:59:36.051Z,993.04
2022-08-07T00:59:47.794Z,993.04
2022-08-07T01:00:04.756Z,993.04
2022-08-07T01:00:19.805Z,993.04
2022-08-07T01:00:36.526Z,993.03
2022-08-07T01:00:53.906Z,993.03
2022-08-07T01:01:08.816Z,993.03
2022-08-07T01:01:25.566Z,993.02
2022-08-07T01:01:44.248Z,993.02
2022-08-07T01:01:57.817Z,993.02
2022-08-07T01:02:14.083Z,993.02
2022-08-07T01:02:29.555Z,993.02
2022-08-07T01:02:43.789Z,993.03
2022-08-07T01:03:01.183Z,993.03
2022-08-07T01:03:16.009Z,993.03
2022-08-07T01:03:55.449Z,993.04
2022-08-07T01:03:56.150Z,993.04
2022-08-07T01:04:04.149Z,993.04
2022-08-07T01:04:24.690Z,993.04
2022-08-07T01:04:42.951Z,993.04
2022-08-07T01:04:52.450Z,993.04
2022-08-07T01:05:18.854Z,993.04
2022-08-07T01:05:26.328Z,993.06
2022-08-07T01:05:41.071Z,993.07
2022-08-07T01:05:57.081Z,993.08
2022-08-07T01:06:12.599Z,993.07
2022-08-07T01:06:29.291Z,993.07
2022-08-07T01:06:44.588Z,993.07
2022-08-07T01:07:00.126Z,993.07
2022-08-07T01:07:16.927Z,993.07
2022-08-07T01:07:32.119Z,993.06
2022-08-07T01:07:49.155Z,993.05
2022-08-07T01:08:04.074Z,993.05
2022-08-07T01:08:20.752Z,993.05
2022-08-07T01:08:35.871Z,993.05
2022-08-07T01:08:55.699Z,993.05
2022-08-07T01:09:08.400Z,993.04
2022-08-07T01:10:03.971Z,993.03
2022-08-07T01:10:04.635Z,993.05
2022-08-07T01:10:07.012Z,993.03
2022-08-07T01:10:12.721Z,993.02
2022-08-07T01:10:27.957Z,993.01
2022-08-07T01:10:54.306Z,993.02
2022-08-07T01:11:00.753Z,993.02
2022-08-07T01:12:04.564Z,993.02
2022-08-07T01:12:10.078Z,993.02
2022-08-07T01:12:24.006Z,993.02
2022-08-07T01:12:28.537Z,993.01
2022-08-07T01:12:28.598Z,993
2022-08-07T01:12:36.113Z,993.02
2022-08-07T01:12:53.923Z,993.02
2022-08-07T01:13:08.868Z,993.01
2022-08-07T01:13:24.530Z,993.02
2022-08-07T01:13:40.991Z,993.01
2022-08-07T01:13:56.465Z,993.01
2022-08-07T01:14:16.713Z,993.02
2022-08-07T01:14:29.005Z,993.01
2022-08-07T01:14:45.187Z,993.02
2022-08-07T01:15:01.118Z,993.02
2022-08-07T01:15:17.708Z,993.01
2022-08-07T01:16:01.200Z,993.01
2022-08-07T01:16:05.215Z,993.01
2022-08-07T01:16:05.870Z,993.01
2022-08-07T01:16:30.540Z,993
2022-08-07T01:16:37.227Z,993.02
2022-08-07T01:16:51.704Z,993.02
2022-08-07T01:17:08.983Z,993.02
2022-08-07T01:17:24.809Z,993.02
2022-08-07T01:17:40.083Z,993.01
2022-08-07T01:18:00.111Z,993
2022-08-07T01:18:16.864Z,993.01
2022-08-07T01:18:28.884Z,993.01
2022-08-07T01:18:43.899Z,993.01
2022-08-07T01:19:00.248Z,993
2022-08-07T01:19:19.231Z,993.01
2022-08-07T01:19:32.955Z,993.01
2022-08-07T01:19:54.438Z,993.01
2022-08-07T01:20:04.560Z,993.01
2022-08-07T01:20:20.262Z,993.01
2022-08-07T01:20:35.288Z,993.01
2022-08-07T01:20:57.368Z,993
2022-08-07T01:21:17.487Z,992.99
2022-08-07T01:21:26.100Z,993
2022-08-07T01:21:41.719Z,993
2022-08-07T01:21:56.988Z,992.99
2022-08-07T01:22:16.208Z,992.99
2022-08-07T01:22:29.701Z,992.99
2022-08-07T01:22:54.139Z,993
2022-08-07T01:23:12.162Z,993
2022-08-07T01:23:16.619Z,993
2022-08-07T01:23:38.581Z,992.99
2022-08-07T01:23:48.523Z,992.99
2022-08-07T01:24:05.679Z,992.98
2022-08-07T01:24:21.659Z,992.99
2022-08-07T01:24:36.418Z,993
2022-08-07T01:24:52.485Z,993
2022-08-07T01:25:40.318Z,993
2022-08-07T01:25:54.613Z,993.02
2022-08-07T01:25:55.522Z,993.02
2022-08-07T01:25:56.543Z,993.03
2022-08-07T01:26:12.592Z,993.02
2022-08-07T01:26:27.465Z,993.01
2022-08-07T01:26:45.045Z,993.03
2022-08-07T01:27:00.413Z,993.02
2022-08-07T01:27:19.348Z,993.01
2022-08-07T01:27:32.426Z,993
2022-08-07T01:27:51.395Z,992.99
2022-08-07T01:28:04.019Z,993.01
2022-08-07T01:28:20.571Z,993.01
2022-08-07T01:28:36.129Z,993.01
2022-08-07T01:28:53.352Z,993
2022-08-07T01:29:08.668Z,993.01
2022-08-07T01:29:24.184Z,992.99
2022-08-07T01:29:40.580Z,992.99
2022-08-07T01:29:57.226Z,992.97
2022-08-07T01:30:12.611Z,992.97
2022-08-07T01:30:28.653Z,992.98
2022-08-07T01:30:45.251Z,992.98
2022-08-07T01:31:00.405Z,992.98
2022-08-07T01:31:17.729Z,992.98
2022-08-07T01:31:42.392Z,992.97
2022-08-07T01:31:50.464Z,992.97
2022-08-07T01:32:05.458Z,992.98
2022-08-07T01:32:19.752Z,992.98
2022-08-07T01:32:36.787Z,992.98
2022-08-07T01:32:51.601Z,992.98
2022-08-07T01:33:08.295Z,992.99
2022-08-07T01:33:23.997Z,992.99
2022-08-07T01:33:55.522Z,992.98
2022-08-07T01:33:57.599Z,992.96
2022-08-07T01:34:12.591Z,992.97
2022-08-07T01:34:30.909Z,992.97
2022-08-07T01:34:43.605Z,992.98
2022-08-07T01:35:00.896Z,992.97
2022-08-07T01:35:17.269Z,992.97
2022-08-07T01:35:52.748Z,992.97
2022-08-07T01:35:53.220Z,992.98
2022-08-07T01:36:06.463Z,992.97
2022-08-07T01:36:20.083Z,992.98
2022-08-07T01:36:36.473Z,992.98
2022-08-07T01:36:58.091Z,992.98
2022-08-07T01:37:09.568Z,992.97
2022-08-07T01:37:24.818Z,992.96
2022-08-07T01:37:39.872Z,992.97
2022-08-07T01:37:56.665Z,992.96
2022-08-07T01:38:12.181Z,992.97
2022-08-07T01:38:29.845Z,992.96
2022-08-07T01:38:43.684Z,992.96
2022-08-07T01:39:00.605Z,992.95
2022-08-07T01:39:16.514Z,992.95
2022-08-07T01:39:40.643Z,992.94
2022-08-07T01:39:48.352Z,992.95
2022-08-07T01:40:04.398Z,992.95
2022-08-07T01:40:20.322Z,992.95
2022-08-07T01:40:35.999Z,992.95
2022-08-07T01:40:52.989Z,992.96
2022-08-07T01:41:07.864Z,992.97
2022-08-07T01:41:26.018Z,992.96
2022-08-07T01:41:40.836Z,992.97
2022-08-07T01:42:37.842Z,992.97
2022-08-07T01:42:38.556Z,992.98
2022-08-07T01:42:38.597Z,992.98
2022-08-07T01:42:55.107Z,992.97
2022-08-07T01:43:01.258Z,992.97
2022-08-07T01:43:16.575Z,992.97
2022-08-07T01:43:34.533Z,992.97
2022-08-07T01:43:49.079Z,992.96
2022-08-07T01:44:04.177Z,992.96
2022-08-07T01:44:20.680Z,992.95
2022-08-07T01:44:36.669Z,992.95
2022-08-07T01:44:53.038Z,992.97
2022-08-07T01:45:10.076Z,992.95
2022-08-07T01:45:36.117Z,992.96
2022-08-07T01:45:40.283Z,992.96
2022-08-07T01:45:56.153Z,992.96
2022-08-07T01:46:12.457Z,992.95
2022-08-07T01:46:28.319Z,992.94
2022-08-07T01:46:44.742Z,992.94
2022-08-07T01:47:01.143Z,992.95
2022-08-07T01:48:17.892Z,992.94
2022-08-07T01:48:18.255Z,992.94
2022-08-07T01:48:20.602Z,992.94
2022-08-07T01:48:20.677Z,992.95
2022-08-07T01:48:30.349Z,992.94
2022-08-07T01:48:41.032Z,992.93
2022-08-07T01:48:51.836Z,992.91
2022-08-07T01:49:08.929Z,992.91
2022-08-07T01:49:24.425Z,992.89
2022-08-07T01:49:41.154Z,992.9
2022-08-07T01:49:56.030Z,992.91
2022-08-07T01:50:11.693Z,992.89
2022-08-07T01:50:28.913Z,992.9
2022-08-07T01:50:44.030Z,992.89
2022-08-07T01:51:24.719Z,992.89
2022-08-07T01:52:02.471Z,992.88
2022-08-07T01:52:03.239Z,992.88
2022-08-07T01:52:03.754Z,992.89
2022-08-07T01:52:04.994Z,992.88
2022-08-07T01:52:20.180Z,992.88
2022-08-07T01:52:36.365Z,992.88
2022-08-07T01:52:54.982Z,992.87
2022-08-07T01:53:08.726Z,992.87
2022-08-07T01:54:08.727Z,992.86
2022-08-07T01:54:09.385Z,992.86
2022-08-07T01:54:09.456Z,992.86
2022-08-07T01:54:21.906Z,992.87
2022-08-07T01:54:36.498Z,992.87
2022-08-07T01:54:45.829Z,992.86
2022-08-07T01:55:00.805Z,992.85
2022-08-07T01:55:22.191Z,992.85
2022-08-07T01:55:33.506Z,992.85
2022-08-07T01:55:48.481Z,992.85
2022-08-07T01:56:03.309Z,992.86
2022-08-07T01:56:20.341Z,992.86
2022-08-07T01:56:35.397Z,992.87
2022-08-07T01:56:52.347Z,992.88
2022-08-07T01:57:08.386Z,992.88
2022-08-07T01:57:25.589Z,992.89
2022-08-07T01:58:01.536Z,992.88
2022-08-07T01:58:05.774Z,992.88
2022-08-07T01:58:27.824Z,992.88
2022-08-07T01:58:29.464Z,992.88
2022-08-07T01:58:45.252Z,992.87
2022-08-07T01:59:00.740Z,992.89
2022-08-07T01:59:17.607Z,992.89
2022-08-07T01:59:33.334Z,992.9
2022-08-07T01:59:48.371Z,992.9
2022-08-07T02:00:03.768Z,992.9
2022-08-07T02:00:20.253Z,992.9
2022-08-07T02:00:45.260Z,992.91
2022-08-07T02:00:51.175Z,992.91
2022-08-07T02:01:10.027Z,992.92
2022-08-07T02:01:58.807Z,992.91
2022-08-07T02:02:01.879Z,992.94
2022-08-07T02:02:02.316Z,992.92
2022-08-07T02:02:12.557Z,992.93
2022-08-07T02:03:11.277Z,992.93
2022-08-07T02:03:18.486Z,992.93
2022-08-07T02:03:18.524Z,992.93
2022-08-07T02:03:21.646Z,992.92
2022-08-07T02:03:48.863Z,992.92
2022-08-07T02:03:50.230Z,992.92
2022-08-07T02:04:03.944Z,992.92
2022-08-07T02:04:19.855Z,992.91
2022-08-07T02:04:36.341Z,992.9
2022-08-07T02:04:55.929Z,992.91
2022-08-07T02:05:15.981Z,992.9
2022-08-07T02:05:43.445Z,992.9
2022-08-07T02:05:47.783Z,992.9
2022-08-07T02:05:59.934Z,992.89
2022-08-07T02:06:30.852Z,992.88
2022-08-07T02:06:31.893Z,992.88
2022-08-07T02:06:43.229Z,992.87
2022-08-07T02:07:00.650Z,992.87
2022-08-07T02:07:16.230Z,992.86
2022-08-07T02:07:36.176Z,992.87
2022-08-07T02:07:50.600Z,992.88
2022-08-07T02:08:04.372Z,992.88
2022-08-07T02:08:19.849Z,992.87
2022-08-07T02:08:36.945Z,992.87
2022-08-07T02:08:54.418Z,992.86
2022-08-07T02:09:07.235Z,992.86
2022-08-07T02:09:33.471Z,992.85
2022-08-07T02:09:53.065Z,992.87
2022-08-07T02:09:58.716Z,992.86
2022-08-07T02:10:11.287Z,992.87
2022-08-07T02:10:28.598Z,992.88
2022-08-07T02:10:43.918Z,992.87
2022-08-07T02:11:00.285Z,992.89
2022-08-07T02:11:31.073Z,992.88
2022-08-07T02:12:03.361Z,992.87
2022-08-07T02:12:04.853Z,992.87
2022-08-07T02:12:05.243Z,992.87
2022-08-07T02:12:19.812Z,992.87
2022-08-07T02:12:35.457Z,992.87
2022-08-07T02:12:53.843Z,992.87
2022-08-07T02:13:08.028Z,992.87
2022-08-07T02:13:57.713Z,992.88
2022-08-07T02:13:58.192Z,992.88
2022-08-07T02:14:02.343Z,992.87
2022-08-07T02:14:35.438Z,992.87
2022-08-07T02:14:36.666Z,992.87
2022-08-07T02:14:44.203Z,992.86
2022-08-07T02:14:59.152Z,992.85
2022-08-07T02:15:15.890Z,992.86
2022-08-07T02:15:31.766Z,992.85
2022-08-07T02:15:48.569Z,992.86
2022-08-07T02:16:04.328Z,992.86
2022-08-07T02:16:28.727Z,992.86
2022-08-07T02:16:35.813Z,992.86
2022-08-07T02:16:52.737Z,992.87
2022-08-07T02:17:08.022Z,992.85
2022-08-07T02:17:27.478Z,992.87
2022-08-07T02:17:40.774Z,992.86
2022-08-07T02:17:56.557Z,992.86
2022-08-07T02:18:11.994Z,992.86
2022-08-07T02:18:27.720Z,992.85
2022-08-07T02:18:47.124Z,992.86
2022-08-07T02:18:59.625Z,992.84
2022-08-07T02:20:05.628Z,992.85
2022-08-07T02:20:06.720Z,992.84
2022-08-07T02:20:07.219Z,992.85
2022-08-07T02:20:09.520Z,992.84
2022-08-07T02:20:23.715Z,992.83
2022-08-07T02:20:35.902Z,992.83
2022-08-07T02:20:55.818Z,992.83
2022-08-07T02:21:08.121Z,992.83
2022-08-07T02:21:24.149Z,992.82
2022-08-07T02:21:55.871Z,992.81
2022-08-07T02:21:58.866Z,992.81
2022-08-07T02:22:13.603Z,992.81
2022-08-07T02:22:27.978Z,992.81
2022-08-07T02:22:43.947Z,992.8
2022-08-07T02:23:00.208Z,992.8
2022-08-07T02:23:15.679Z,992.8
2022-08-07T02:23:35.782Z,992.81
2022-08-07T02:23:47.384Z,992.81
2022-08-07T02:24:03.989Z,992.82
2022-08-07T02:24:19.397Z,992.81
2022-08-07T02:24:36.882Z,992.81
2022-08-07T02:24:52.888Z,992.81
2022-08-07T02:25:13.866Z,992.81
2022-08-07T02:25:32.176Z,992.8
2022-08-07T02:26:31.439Z,992.8
2022-08-07T02:26:31.598Z,992.81
2022-08-07T02:26:32.396Z,992.81
2022-08-07T02:26:32.617Z,992.78
2022-08-07T02:26:43.313Z,992.77
2022-08-07T02:27:01.192Z,992.78
2022-08-07T02:27:15.724Z,992.78
2022-08-07T02:27:34.331Z,992.78
2022-08-07T02:27:52.143Z,992.79
2022-08-07T02:28:04.863Z,992.78
2022-08-07T02:28:25.449Z,992.78
2022-08-07T02:28:37.880Z,992.78
2022-08-07T02:28:52.751Z,992.77
2022-08-07T02:29:07.991Z,992.78
2022-08-07T02:29:24.791Z,992.78
2022-08-07T02:29:48.522Z,992.77
2022-08-07T02:29:56.611Z,992.77
2022-08-07T02:30:12.434Z,992.78
2022-08-07T02:30:29.110Z,992.78
2022-08-07T02:30:44.248Z,992.78
2022-08-07T02:30:59.898Z,992.78
2022-08-07T02:31:28.687Z,992.78
2022-08-07T02:31:32.753Z,992.78
2022-08-07T02:31:48.595Z,992.77
2022-08-07T02:32:06.247Z,992.77
2022-08-07T02:32:23.170Z,992.76
2022-08-07T02:32:36.253Z,992.76
2022-08-07T02:33:01.002Z,992.76
2022-08-07T02:33:10.442Z,992.76
2022-08-07T02:33:23.470Z,992.76
2022-08-07T02:33:57.290Z,992.75
2022-08-07T02:34:03.038Z,992.76
2022-08-07T02:34:17.952Z,992.77
2022-08-07T02:34:30.469Z,992.76
2022-08-07T02:34:49.006Z,992.76
2022-08-07T02:35:00.819Z,992.75
2022-08-07T02:35:20.411Z,992.75
2022-08-07T02:36:28.205Z,992.75
2022-08-07T02:36:30.136Z,992.75
2022-08-07T02:36:30.256Z,992.75
2022-08-07T02:36:30.728Z,992.75
2022-08-07T02:36:37.009Z,992.75
2022-08-07T02:36:51.321Z,992.74
2022-08-07T02:37:08.432Z,992.74
2022-08-07T02:37:24.034Z,992.74
2022-08-07T02:37:43.823Z,992.73
2022-08-07T02:37:56.217Z,992.74
2022-08-07T02:38:16.578Z,992.74
2022-08-07T02:38:31.951Z,992.73
2022-08-07T02:38:51.016Z,992.72
2022-08-07T02:39:00.133Z,992.72
2022-08-07T02:39:17.014Z,992.72
2022-08-07T02:39:43.267Z,992.73
2022-08-07T02:40:11.946Z,992.72
2022-08-07T02:40:30.575Z,992.72
2022-08-07T02:40:30.814Z,992.7
2022-08-07T02:40:36.837Z,992.7
2022-08-07T02:40:56.086Z,992.69
2022-08-07T02:41:08.426Z,992.69
2022-08-07T02:41:24.186Z,992.69
2022-08-07T02:41:39.076Z,992.69
2022-08-07T02:41:56.545Z,992.68
2022-08-07T02:42:16.201Z,992.68
2022-08-07T02:42:27.882Z,992.68
2022-08-07T02:42:44.691Z,992.67
2022-08-07T02:43:00.783Z,992.69
2022-08-07T02:43:16.302Z,992.67
2022-08-07T02:43:32.307Z,992.66
2022-08-07T02:43:49.107Z,992.66
2022-08-07T02:44:04.971Z,992.67
2022-08-07T02:44:21.756Z,992.67
2022-08-07T02:44:36.525Z,992.66
2022-08-07T02:44:51.952Z,992.66
2022-08-07T02:45:58.378Z,992.65
2022-08-07T02:45:58.747Z,992.66
2022-08-07T02:45:58.956Z,992.66
2022-08-07T02:45:59.408Z,992.66
2022-08-07T02:46:13.460Z,992.65
2022-08-07T02:46:28.785Z,992.66
2022-08-07T02:46:46.540Z,992.65
2022-08-07T02:46:59.789Z,992.64
2022-08-07T02:47:19.183Z,992.64
2022-08-07T02:47:44.997Z,992.66
2022-08-07T02:47:49.786Z,992.67
2022-08-07T02:48:03.587Z,992.66
2022-08-07T02:48:20.345Z,992.66
2022-08-07T02:48:36.210Z,992.67
2022-08-07T02:48:54.928Z,992.67
2022-08-07T02:49:08.278Z,992.67
2022-08-07T02:49:28.897Z,992.66
2022-08-07T02:49:58.142Z,992.66
2022-08-07T02:49:59.754Z,992.66
2022-08-07T02:50:12.088Z,992.66
2022-08-07T02:50:30.905Z,992.67
2022-08-07T02:50:43.795Z,992.66
2022-08-07T02:51:00.086Z,992.66
2022-08-07T02:51:42.051Z,992.68
2022-08-07T02:51:42.334Z,992.66
2022-08-07T02:51:51.901Z,992.65
2022-08-07T02:52:04.399Z,992.66
2022-08-07T02:52:21.514Z,992.65
2022-08-07T02:52:36.048Z,992.65
2022-08-07T02:52:51.530Z,992.64
2022-08-07T02:53:10.868Z,992.63
2022-08-07T02:53:23.293Z,992.62
2022-08-07T02:53:40.402Z,992.62
2022-08-07T02:53:55.922Z,992.61
2022-08-07T02:54:13.216Z,992.62
2022-08-07T02:54:27.855Z,992.6
2022-08-07T02:54:45.390Z,992.59
2022-08-07T02:55:00.368Z,992.59
2022-08-07T02:55:28.107Z,992.58
2022-08-07T02:56:02.246Z,992.57
2022-08-07T02:56:03.082Z,992.57
2022-08-07T02:56:11.248Z,992.57
2022-08-07T02:56:21.754Z,992.58
2022-08-07T02:56:36.471Z,992.58
2022-08-07T02:56:52.247Z,992.59
2022-08-07T02:57:08.675Z,992.6
2022-08-07T02:57:23.712Z,992.58
2022-08-07T02:57:40.372Z,992.58
2022-08-07T02:57:56.021Z,992.58
2022-08-07T02:58:11.238Z,992.59
2022-08-07T02:58:28.474Z,992.59
2022-08-07T02:58:47.019Z,992.6
2022-08-07T02:59:00.317Z,992.59
2022-08-07T02:59:15.217Z,992.6
2022-08-07T02:59:32.518Z,992.59
2022-08-07T02:59:54.839Z,992.59
2022-08-07T03:00:04.879Z,992.59
2022-08-07T03:00:20.103Z,992.59
2022-08-07T03:00:35.338Z,992.58
2022-08-07T03:00:53.892Z,992.59
2022-08-07T03:01:15.953Z,992.59
2022-08-07T03:01:35.443Z,992.59
2022-08-07T03:01:39.635Z,992.57
2022-08-07T03:01:56.189Z,992.56
2022-08-07T03:02:13.568Z,992.58
2022-08-07T03:02:28.888Z,992.57
2022-08-07T03:02:54.021Z,992.58
2022-08-07T03:03:06.094Z,992.57
2022-08-07T03:03:21.077Z,992.56
2022-08-07T03:03:49.117Z,992.57
2022-08-07T03:03:50.004Z,992.56
2022-08-07T03:04:07.147Z,992.56
2022-08-07T03:04:20.651Z,992.55
2022-08-07T03:04:35.502Z,992.55
2022-08-07T03:04:53.756Z,992.55
2022-08-07T03:05:07.668Z,992.55
2022-08-07T03:05:24.473Z,992.54
2022-08-07T03:05:40.271Z,992.53
2022-08-07T03:05:56.330Z,992.54
2022-08-07T03:06:16.376Z,992.52
2022-08-07T03:06:34.743Z,992.51
2022-08-07T03:06:45.804Z,992.52
2022-08-07T03:07:07.060Z,992.52
2022-08-07T03:07:18.681Z,992.53
2022-08-07T03:08:04.841Z,992.53
2022-08-07T03:08:07.135Z,992.52
2022-08-07T03:08:07.454Z,992.53
2022-08-07T03:08:26.790Z,992.52
2022-08-07T03:08:36.179Z,992.51
2022-08-07T03:08:51.496Z,992.52
2022-08-07T03:09:11.279Z,992.51
2022-08-07T03:09:43.609Z,992.51
2022-08-07T03:09:44.534Z,992.5
2022-08-07T03:09:56.039Z,992.5
2022-08-07T03:10:14.313Z,992.49
2022-08-07T03:10:28.180Z,992.5
2022-08-07T03:10:46.744Z,992.49
2022-08-07T03:10:59.713Z,992.49
2022-08-07T03:11:17.881Z,992.49
2022-08-07T03:11:33.008Z,992.49
2022-08-07T03:11:52.249Z,992.48
2022-08-07T03:12:04.907Z,992.47
2022-08-07T03:12:22.309Z,992.47
2022-08-07T03:12:36.033Z,992.47
2022-08-07T03:12:51.964Z,992.48
2022-08-07T03:13:08.766Z,992.47
2022-08-07T03:13:25.250Z,992.46
2022-08-07T03:13:49.378Z,992.47
2022-08-07T03:13:57.672Z,992.47
2022-08-07T03:14:11.794Z,992.46
2022-08-07T03:14:28.423Z,992.47
2022-08-07T03:14:43.266Z,992.46
2022-08-07T03:15:02.422Z,992.46
2022-08-07T03:15:16.585Z,992.48
2022-08-07T03:15:47.846Z,992.48
2022-08-07T03:15:56.395Z,992.48
2022-08-07T03:16:04.328Z,992.47
2022-08-07T03:16:19.710Z,992.46
2022-08-07T03:16:36.668Z,992.47
2022-08-07T03:16:52.573Z,992.47
2022-08-07T03:17:08.732Z,992.48
2022-08-07T03:17:24.341Z,992.48
2022-08-07T03:17:53.035Z,992.48
2022-08-07T03:17:56.601Z,992.48
2022-08-07T03:18:11.668Z,992.47
2022-08-07T03:18:36.125Z,992.49
2022-08-07T03:18:44.149Z,992.49
2022-08-07T03:19:00.758Z,992.5
2022-08-07T03:19:15.649Z,992.51
2022-08-07T03:19:37.086Z,992.51
2022-08-07T03:19:52.916Z,992.52
2022-08-07T03:20:03.428Z,992.52
2022-08-07T03:20:19.922Z,992.53
2022-08-07T03:20:35.778Z,992.53